Hauptseite
METAR-TAF:

METAR-TAF

Flughäfen :

Flugplatz Locarno

Locarno, Schweiz

Breite: 46-09-55N, Länge: 8-52-40E, Höhe: 198 m

Beobachtung

Neuester Wetterbericht von vor 24 Minuten, um 07:50 UTC
Wind 4 kt aus Ost, variierte zwischen Nord/Nordost und Ost/Südost
Temperatur 24°C
Luftfeuchtigkeit 61%
Luftdruck 1020 hPa
Sichtweite 10 km oder mehr

METAR: LSZL 190750Z AUTO 08004KT 030V110 9999NDV NCD 24/16 Q1020 RMK

Zeit: 10:14 (08:14 UTC)


TAF: fehlend

Wetterbeobachtungen und Prognosen von mehr als 4000 Flughäfen (METAR und TAF Bericht).

Die verfügbaren Stationen werden durch gelbe und rote Markierungen auf der Karte dargestellt.

Führen Sie die Maus auf sie, um den Namen der Station zu sehen.

Darauf klicken, um die Beobachtung von Wetterbeobachtungen und Prognosen zu sehen.

Um die Karte zu ändern : klicken Sie auf den grünen Tasten mit einem schwarzen Kreuz Zum Vergrößern, auf den grünen Button mit einem Gedankenstrich zu verkleinern, oder auf die grünen Pfeile für benachbarte Karten.


METAR-TAF: